Time;durP1;ratioP1;P1;durP2;ratioP2;P2;SDS_P1;SDS_P2;PMS_P1;PMS_P2;Temp;Humidity;BMP_temperature;BMP_pressure;BME280_temperature;BME280_humidity;BME280_pressure;Samples;Min_cycle;Max_cycle;Signal;HPM_P1;HPM_P2
2022/02/20 07:38:10;;;;;;;2.60;1.60;;;4.50;99.90;;;;;;5353870;22;20480;-64
2022/02/20 07:40:37;;;;;;;3.43;2.60;;;4.50;99.90;;;;;;5038435;28;20491;-60
2022/02/20 07:43:03;;;;;;;2.20;2.00;;;4.50;99.90;;;;;;5038217;28;20510;-62
2022/02/20 07:45:30;;;;;;;1.90;1.40;;;4.50;99.90;;;;;;5038305;28;20527;-60
2022/02/20 07:47:59;;;;;;;2.90;2.07;;;4.60;99.90;;;;;;5038057;28;20441;-63
2022/02/20 07:50:29;;;;;;;4.33;3.70;;;4.60;99.90;;;;;;5038604;28;20472;-62
2022/02/20 07:52:57;;;;;;;1.73;1.50;;;4.60;99.90;;;;;;5037909;28;20480;-62
2022/02/20 07:55:27;;;;;;;4.60;2.03;;;4.70;99.90;;;;;;5037880;28;20476;-60
2022/02/20 07:57:54;;;;;;;2.70;1.67;;;4.70;99.90;;;;;;5038189;28;20462;-59
2022/02/20 08:00:26;;;;;;;3.40;1.93;;;4.70;99.90;;;;;;5038026;28;20476;-61
2022/02/20 08:02:52;;;;;;;2.17;1.93;;;4.70;99.90;;;;;;5038118;28;20436;-63
2022/02/20 08:05:19;;;;;;;3.27;2.10;;;4.80;99.90;;;;;;5037803;28;20976;-61
2022/02/20 08:07:46;;;;;;;3.10;2.07;;;4.80;99.90;;;;;;5037954;28;20476;-61
2022/02/20 08:10:13;;;;;;;4.27;1.93;;;4.90;99.90;;;;;;5037884;28;20445;-61
2022/02/20 08:12:41;;;;;;;3.50;2.43;;;4.90;99.90;;;;;;5037690;28;20482;-60
2022/02/20 08:15:08;;;;;;;4.20;2.03;;;5.00;99.90;;;;;;5037662;28;20441;-60
2022/02/20 08:17:42;;;;;;;2.27;2.07;;;5.00;99.90;;;;;;5037048;28;20436;-58
2022/02/20 08:20:09;;;;;;;2.80;2.17;;;5.00;99.90;;;;;;5037711;28;20476;-62
2022/02/20 08:22:36;;;;;;;2.50;2.10;;;5.10;99.90;;;;;;5037507;28;20458;-62
2022/02/20 08:25:03;;;;;;;3.90;2.60;;;5.20;99.90;;;;;;5037520;28;20808;-60
2022/02/20 08:27:34;;;;;;;3.80;2.30;;;5.30;99.90;;;;;;5037535;28;20444;-59
2022/02/20 08:30:02;;;;;;;3.50;2.20;;;5.20;99.90;;;;;;5037652;28;20433;-60
2022/02/20 08:32:29;;;;;;;3.37;2.73;;;5.30;99.90;;;;;;5037427;28;20483;-62
2022/02/20 08:34:56;;;;;;;2.20;1.63;;;5.30;99.90;;;;;;5037435;28;20467;-61
2022/02/20 08:37:22;;;;;;;3.17;2.03;;;5.30;99.90;;;;;;5036695;28;20475;-63
2022/02/20 08:39:49;;;;;;;1.93;1.30;;;5.30;99.90;;;;;;5037346;28;20459;-62
2022/02/20 08:42:16;;;;;;;4.17;2.60;;;5.40;99.90;;;;;;5037331;28;20459;-60
2022/02/20 08:44:43;;;;;;;2.80;2.03;;;5.50;99.90;;;;;;5037163;28;20461;-60
2022/02/20 08:47:11;;;;;;;2.23;1.80;;;5.50;99.90;;;;;;5037115;28;20479;-58
2022/02/20 08:49:38;;;;;;;2.10;1.90;;;5.60;99.90;;;;;;5037219;28;20449;-60
2022/02/20 08:52:05;;;;;;;2.73;1.93;;;5.70;99.90;;;;;;5037082;28;20478;-62
2022/02/20 08:54:32;;;;;;;3.27;1.43;;;5.70;99.90;;;;;;5037224;28;20460;-60
2022/02/20 08:56:59;;;;;;;2.87;1.53;;;5.70;99.90;;;;;;5037067;28;20473;-60
2022/02/20 08:59:26;;;;;;;2.70;1.87;;;5.80;99.90;;;;;;5037042;28;20446;-61
2022/02/20 09:01:52;;;;;;;3.30;2.40;;;6.10;99.90;;;;;;5036846;28;20538;-60
2022/02/20 09:04:20;;;;;;;1.87;1.77;;;5.90;99.90;;;;;;5036986;28;20509;-62
2022/02/20 09:06:47;;;;;;;3.83;2.13;;;6.00;99.90;;;;;;5036664;28;20949;-60
2022/02/20 09:09:14;;;;;;;2.07;1.83;;;6.00;99.90;;;;;;5036773;28;20469;-63
2022/02/20 09:11:40;;;;;;;5.23;2.67;;;6.00;99.90;;;;;;5036817;28;20476;-65
2022/02/20 09:14:07;;;;;;;2.43;1.70;;;6.10;99.90;;;;;;5036457;28;20961;-59
2022/02/20 09:16:34;;;;;;;3.50;2.10;;;6.10;99.90;;;;;;5036471;28;20994;-61
2022/02/20 09:19:03;;;;;;;3.80;2.17;;;6.10;99.90;;;;;;5036383;28;20942;-62
2022/02/20 09:21:31;;;;;;;3.43;1.60;;;6.20;99.90;;;;;;5036597;28;20471;-61
2022/02/20 09:23:58;;;;;;;3.63;2.57;;;6.10;99.90;;;;;;5036643;28;20464;-61
2022/02/20 09:26:25;;;;;;;3.60;2.70;;;6.00;99.90;;;;;;5036413;28;20476;-60
2022/02/20 09:28:52;;;;;;;3.80;1.97;;;6.00;99.90;;;;;;5035778;28;20503;-62
2022/02/20 09:31:19;;;;;;;3.87;2.80;;;6.00;99.90;;;;;;5036033;28;20475;-59
2022/02/20 09:33:45;;;;;;;3.40;2.50;;;6.10;99.90;;;;;;5036263;28;20536;-60
2022/02/20 09:36:12;;;;;;;3.40;1.87;;;6.10;99.90;;;;;;5036141;28;20486;-60
2022/02/20 09:38:41;;;;;;;7.40;2.00;;;6.10;99.90;;;;;;5036058;28;20545;-60
2022/02/20 09:41:10;;;;;;;3.30;2.43;;;6.10;99.90;;;;;;5035834;28;20475;-59
2022/02/20 09:43:38;;;;;;;3.53;2.20;;;6.20;99.90;;;;;;5035860;28;20821;-61
2022/02/20 09:46:06;;;;;;;3.90;2.37;;;6.20;99.90;;;;;;5035949;28;20447;-61
2022/02/20 09:48:34;;;;;;;1.90;1.60;;;6.20;99.90;;;;;;5036041;28;20443;-63
2022/02/20 09:51:01;;;;;;;4.57;2.20;;;6.20;99.90;;;;;;5036011;28;20450;-62
2022/02/20 09:53:28;;;;;;;3.57;2.60;;;6.30;99.90;;;;;;5035968;28;20556;-66
2022/02/20 09:55:56;;;;;;;5.33;2.20;;;6.30;99.90;;;;;;5035960;28;20456;-64
2022/02/20 09:58:23;;;;;;;6.83;2.90;;;6.20;99.90;;;;;;5035802;28;20452;-61
2022/02/20 10:00:51;;;;;;;7.33;4.10;;;6.10;99.90;;;;;;5035941;28;20466;-60
2022/02/20 10:03:33;;;;;;;3.83;2.53;;;6.10;99.90;;;;;;5035936;28;20432;-60
2022/02/20 10:06:01;;;;;;;3.27;2.50;;;6.20;99.90;;;;;;5035882;28;20469;-60
2022/02/20 10:08:28;;;;;;;4.17;2.67;;;6.20;99.90;;;;;;5035612;28;20490;-61
2022/02/20 10:11:13;;;;;;;4.57;2.90;;;6.20;99.90;;;;;;5035683;28;20453;-61
2022/02/20 10:13:40;;;;;;;5.90;3.40;;;6.20;99.90;;;;;;5035492;28;20521;-61
2022/02/20 10:16:17;;;;;;;5.67;3.33;;;6.30;99.90;;;;;;5035538;28;20454;-60
2022/02/20 10:18:45;;;;;;;5.43;3.33;;;6.30;99.90;;;;;;5035567;28;20447;-65
2022/02/20 10:21:16;;;;;;;5.47;3.60;;;6.30;99.90;;;;;;5035624;28;20770;-63
2022/02/20 10:23:43;;;;;;;7.60;6.00;;;6.30;99.90;;;;;;5035524;28;20425;-63
2022/02/20 10:26:13;;;;;;;4.67;3.13;;;6.40;99.90;;;;;;5035438;28;20456;-60
2022/02/20 10:28:58;;;;;;;4.30;3.30;;;6.30;99.90;;;;;;5035427;28;20438;-60
2022/02/20 10:31:37;;;;;;;9.60;5.10;;;6.30;99.90;;;;;;5035266;28;20482;-60
2022/02/20 10:34:05;;;;;;;3.77;2.97;;;6.40;99.90;;;;;;5035216;28;20462;-58
2022/02/20 10:36:45;;;;;;;4.53;3.20;;;6.40;99.90;;;;;;5034861;28;20464;-61
2022/02/20 10:39:18;;;;;;;5.83;3.77;;;6.50;99.90;;;;;;5035503;28;20439;-61
2022/02/20 10:41:47;;;;;;;6.00;3.53;;;6.60;99.90;;;;;;5035015;28;20475;-61
2022/02/20 10:44:13;;;;;;;4.47;3.20;;;6.70;99.90;;;;;;5034831;28;20891;-58
2022/02/20 10:46:40;;;;;;;4.90;2.50;;;6.80;99.90;;;;;;5035110;28;20503;-62
2022/02/20 10:49:07;;;;;;;6.00;3.07;;;7.00;99.90;;;;;;5035035;28;20487;-61
2022/02/20 10:51:39;;;;;;;4.83;3.63;;;7.10;99.90;;;;;;5034781;28;20464;-60
2022/02/20 10:54:06;;;;;;;4.10;2.97;;;7.20;99.90;;;;;;5035002;28;20480;-60
2022/02/20 10:56:39;;;;;;;5.17;3.33;;;7.10;99.90;;;;;;5034986;28;20464;-61
2022/02/20 10:59:08;;;;;;;6.10;2.93;;;7.10;99.90;;;;;;5034725;28;20476;-61
2022/02/20 11:01:35;;;;;;;4.23;2.97;;;7.20;99.90;;;;;;5035066;28;20487;-64
2022/02/20 11:04:04;;;;;;;4.53;2.47;;;7.20;99.90;;;;;;5034790;28;20447;-59
2022/02/20 11:06:32;;;;;;;4.27;3.00;;;7.40;99.90;;;;;;5034809;28;20530;-62
2022/02/20 11:08:58;;;;;;;3.50;2.73;;;7.40;99.90;;;;;;5034625;28;20450;-62
2022/02/20 11:11:42;;;;;;;5.60;3.83;;;7.40;99.90;;;;;;5034889;28;20450;-64
2022/02/20 11:14:12;;;;;;;4.20;2.87;;;7.50;99.90;;;;;;5035155;28;20473;-62
2022/02/20 11:16:41;;;;;;;7.27;3.70;;;7.50;99.90;;;;;;5034876;28;20437;-60
2022/02/20 11:19:09;;;;;;;6.80;3.70;;;7.50;99.90;;;;;;5034544;28;20954;-63
2022/02/20 11:21:42;;;;;;;8.40;4.10;;;7.50;99.90;;;;;;5034500;28;20809;-61
2022/02/20 11:24:10;;;;;;;7.13;3.70;;;7.50;99.90;;;;;;5034635;28;20440;-62
2022/02/20 11:26:40;;;;;;;5.60;3.23;;;7.50;99.90;;;;;;5034672;28;20521;-60
2022/02/20 11:29:07;;;;;;;5.53;2.70;;;7.50;99.90;;;;;;5034519;28;20904;-60
2022/02/20 11:31:36;;;;;;;3.53;2.80;;;7.50;99.90;;;;;;5034808;28;20549;-62
2022/02/20 11:34:04;;;;;;;3.90;2.53;;;7.40;99.90;;;;;;5034496;28;20483;-60
2022/02/20 11:36:32;;;;;;;17.47;7.27;;;7.40;99.90;;;;;;5034583;28;20521;-62
2022/02/20 11:39:03;;;;;;;6.23;3.20;;;7.30;99.90;;;;;;5034627;28;20440;-59
2022/02/20 11:41:30;;;;;;;6.30;3.97;;;7.20;99.90;;;;;;5034601;28;20503;-61
2022/02/20 11:44:11;;;;;;;3.07;2.87;;;7.20;99.90;;;;;;5034576;28;20451;-60
2022/02/20 11:46:48;;;;;;;3.43;2.50;;;7.20;99.90;;;;;;5034504;28;20437;-61
2022/02/20 11:49:30;;;;;;;7.40;3.10;;;7.10;99.90;;;;;;5034407;28;20448;-63
2022/02/20 11:52:03;;;;;;;7.70;2.43;;;7.00;99.90;;;;;;5034605;28;20482;-59
2022/02/20 11:54:31;;;;;;;4.60;2.47;;;6.90;99.90;;;;;;5038015;28;20468;-60
2022/02/20 11:57:23;;;;;;;2.23;1.90;;;6.80;99.90;;;;;;5038214;28;20474;-60
2022/02/20 12:00:13;;;;;;;2.60;2.13;;;6.70;99.90;;;;;;5038034;28;20771;-61
2022/02/20 12:03:02;;;;;;;3.50;1.97;;;6.60;99.90;;;;;;5037939;28;20478;-65
2022/02/20 12:05:29;;;;;;;2.07;1.70;;;6.60;99.90;;;;;;5038189;28;20851;-66
2022/02/20 12:07:55;;;;;;;7.23;3.47;;;6.50;99.90;;;;;;5037691;28;20473;-60
2022/02/20 12:10:33;;;;;;;5.00;1.70;;;6.40;99.90;;;;;;5038008;28;20448;-61
2022/02/20 12:13:29;;;;;;;4.00;2.50;;;6.40;99.90;;;;;;5037446;28;20480;-60
2022/02/20 12:15:56;;;;;;;4.17;2.20;;;6.30;99.90;;;;;;5037859;28;20808;-62
2022/02/20 12:18:30;;;;;;;2.13;1.67;;;6.20;99.90;;;;;;5037701;28;20473;-64
2022/02/20 12:21:16;;;;;;;4.90;3.73;;;6.20;99.90;;;;;;5038905;28;20566;-65
2022/02/20 12:23:51;;;;;;;3.20;2.37;;;6.10;99.90;;;;;;5038276;28;20464;-61
2022/02/20 12:26:45;;;;;;;6.33;2.83;;;6.00;99.90;;;;;;5037593;28;20424;-63
2022/02/20 12:29:14;;;;;;;4.87;1.90;;;6.00;99.90;;;;;;5037463;28;20447;-67
2022/02/20 12:32:01;;;;;;;2.97;2.30;;;5.90;99.90;;;;;;5037555;28;20449;-62
2022/02/20 12:34:56;;;;;;;6.10;3.13;;;5.90;99.90;;;;;;5037456;28;20566;-64
2022/02/20 12:37:25;;;;;;;3.43;2.13;;;5.90;99.90;;;;;;5037282;28;20440;-58
2022/02/20 12:39:54;;;;;;;3.13;2.40;;;5.80;99.90;;;;;;5037581;28;20438;-64
2022/02/20 12:42:22;;;;;;;5.90;3.20;;;5.80;99.90;;;;;;5037208;28;20592;-61
2022/02/20 12:44:49;;;;;;;5.47;4.10;;;5.80;99.90;;;;;;5037053;28;20452;-63
2022/02/20 12:47:17;;;;;;;3.07;2.60;;;6.80;99.90;;;;;;5037077;28;20448;-62
2022/02/20 12:49:52;;;;;;;4.50;2.70;;;5.70;99.90;;;;;;5037221;28;20855;-62
2022/02/20 12:52:20;;;;;;;9.07;2.90;;;5.70;99.90;;;;;;5036998;28;20869;-62
2022/02/20 12:54:54;;;;;;;3.60;3.30;;;5.70;99.90;;;;;;5037145;28;20488;-62
2022/02/20 12:57:24;;;;;;;7.30;3.63;;;5.60;99.90;;;;;;5037345;28;20770;-66
2022/02/20 12:59:56;;;;;;;3.50;2.60;;;5.60;99.90;;;;;;5037094;28;20463;-66
2022/02/20 13:02:38;;;;;;;6.13;3.00;;;5.60;99.90;;;;;;5036943;28;20525;-63
2022/02/20 13:05:08;;;;;;;3.77;3.03;;;5.70;99.90;;;;;;5036451;28;20440;-62
2022/02/20 13:07:40;;;;;;;7.17;4.57;;;5.70;99.90;;;;;;5036753;28;20489;-62
2022/02/20 13:10:08;;;;;;;7.23;3.60;;;5.70;99.90;;;;;;5036746;28;20473;-60
2022/02/20 13:12:35;;;;;;;4.53;4.07;;;5.80;99.90;;;;;;5036749;28;20446;-62
2022/02/20 13:15:03;;;;;;;9.50;4.80;;;5.80;99.90;;;;;;5036997;28;20497;-59
2022/02/20 13:17:47;;;;;;;8.83;5.30;;;5.80;99.90;;;;;;5036566;28;20463;-62
2022/02/20 13:20:33;;;;;;;6.83;4.40;;;5.80;99.90;;;;;;5046719;28;21160;-55
2022/02/20 13:23:18;;;;;;;4.10;3.30;;;5.80;99.90;;;;;;5048856;28;20438;-41
2022/02/20 13:25:45;;;;;;;3.67;3.30;;;5.80;99.90;;;;;;5038658;28;20448;-58
2022/02/20 13:28:16;;;;;;;7.47;3.90;;;5.90;99.90;;;;;;5042647;28;20426;-43
2022/02/20 13:30:44;;;;;;;5.00;2.97;;;5.90;99.90;;;;;;5044504;28;20886;-60
2022/02/20 13:33:13;;;;;;;3.00;2.40;;;6.00;99.90;;;;;;5048171;28;20451;-61
2022/02/20 13:35:41;;;;;;;5.07;2.53;;;6.00;99.90;;;;;;5045420;28;20454;-61
2022/02/20 13:38:11;;;;;;;7.63;2.53;;;6.00;99.90;;;;;;5057447;28;20439;-61
2022/02/20 13:40:42;;;;;;;8.53;2.17;;;6.10;99.90;;;;;;5059074;28;20457;-58
2022/02/20 13:43:12;;;;;;;2.93;2.57;;;6.10;99.90;;;;;;5039317;28;20517;-61
2022/02/20 13:45:50;;;;;;;3.93;2.67;;;6.10;99.90;;;;;;5036041;28;20436;-61
2022/02/20 13:48:29;;;;;;;6.10;3.40;;;6.20;99.90;;;;;;5035840;28;20443;-61
2022/02/20 13:51:12;;;;;;;6.43;2.37;;;6.20;99.90;;;;;;5035866;28;20722;-61
2022/02/20 13:53:44;;;;;;;5.80;2.97;;;6.20;99.90;;;;;;5035746;28;20480;-62
2022/02/20 13:56:12;;;;;;;4.40;2.53;;;6.30;99.90;;;;;;5035650;28;20895;-61
2022/02/20 13:58:40;;;;;;;14.53;3.30;;;6.30;99.90;;;;;;5035694;28;20503;-62
2022/02/20 14:01:07;;;;;;;8.47;3.00;;;6.30;99.90;;;;;;5035895;28;20459;-64
2022/02/20 14:03:36;;;;;;;8.20;2.60;;;6.20;99.90;;;;;;5036570;28;20448;-64
2022/02/20 14:06:03;;;;;;;3.30;2.90;;;6.30;99.90;;;;;;5036000;28;20481;-64
2022/02/20 14:08:31;;;;;;;4.17;2.63;;;6.30;99.90;;;;;;5035421;28;20467;-62
2022/02/20 14:11:00;;;;;;;6.37;4.00;;;6.40;99.90;;;;;;5035304;28;20475;-62
2022/02/20 14:13:32;;;;;;;3.10;2.03;;;6.40;99.90;;;;;;5042865;28;20466;-59
2022/02/20 14:16:00;;;;;;;5.93;2.93;;;6.50;99.90;;;;;;5035416;28;20527;-61
2022/02/20 14:18:30;;;;;;;6.20;2.83;;;6.60;99.90;;;;;;5046948;28;20440;-43
2022/02/20 14:20:57;;;;;;;10.80;2.87;;;6.70;99.90;;;;;;5053798;28;20451;-60
2022/02/20 14:23:25;;;;;;;2.70;2.10;;;6.70;99.90;;;;;;5050048;28;20426;-41
2022/02/20 14:25:53;;;;;;;4.70;2.07;;;6.80;99.90;;;;;;5058644;28;20446;-44
2022/02/20 14:28:23;;;;;;;9.20;2.27;;;6.90;99.90;;;;;;5051601;28;20439;-44
2022/02/20 14:30:51;;;;;;;4.40;2.50;;;6.90;99.90;;;;;;5037616;28;20430;-61
2022/02/20 14:33:19;;;;;;;4.27;2.17;;;7.00;99.90;;;;;;5041611;28;20425;-44
2022/02/20 14:35:49;;;;;;;2.60;1.87;;;7.00;99.90;;;;;;5057961;28;20490;-51
2022/02/20 14:38:18;;;;;;;9.90;2.57;;;7.10;99.90;;;;;;5035660;28;20443;-62
2022/02/20 14:40:46;;;;;;;6.67;2.70;;;7.10;99.90;;;;;;5035785;28;20452;-61
2022/02/20 14:43:13;;;;;;;3.57;2.80;;;7.10;99.90;;;;;;5036804;28;20927;-55
2022/02/20 14:45:44;;;;;;;1.70;1.47;;;7.20;99.90;;;;;;5046653;28;20432;-48
2022/02/20 14:48:11;;;;;;;6.90;1.93;;;7.20;99.90;;;;;;5030254;28;20428;-62
2022/02/20 14:50:39;;;;;;;6.30;2.17;;;7.30;99.90;;;;;;5029935;28;21705;-62
2022/02/20 14:53:06;;;;;;;3.50;1.73;;;7.30;99.90;;;;;;5050664;28;20485;-62
2022/02/20 14:55:33;;;;;;;2.27;1.70;;;7.30;99.90;;;;;;5037002;28;20498;-67
2022/02/20 14:58:00;;;;;;;3.00;1.30;;;7.30;99.90;;;;;;5027852;28;21014;-62
2022/02/20 15:00:27;;;;;;;1.83;1.33;;;7.40;99.90;;;;;;5043114;28;20451;-45
2022/02/20 15:02:55;;;;;;;9.50;5.97;;;7.40;99.90;;;;;;5032319;28;20448;-61
2022/02/20 15:05:24;;;;;;;5.73;2.50;;;7.40;99.90;;;;;;5036629;28;20541;-61
2022/02/20 15:07:51;;;;;;;2.57;1.40;;;7.50;99.90;;;;;;5038553;28;20522;-61
2022/02/20 15:10:17;;;;;;;3.10;1.57;;;7.50;99.90;;;;;;5040254;28;20528;-56
2022/02/20 15:12:45;;;;;;;3.53;1.37;;;7.60;99.90;;;;;;5036963;28;20451;-61
2022/02/20 15:15:12;;;;;;;1.60;1.37;;;7.60;99.90;;;;;;5036114;28;20484;-61
2022/02/20 15:17:39;;;;;;;3.17;1.90;;;7.60;99.90;;;;;;5033893;28;20469;-61
2022/02/20 15:20:10;;;;;;;3.47;1.67;;;7.60;99.90;;;;;;5035056;28;20474;-59
2022/02/20 15:22:39;;;;;;;1.97;1.50;;;7.70;99.90;;;;;;5038242;28;20444;-63
2022/02/20 15:25:06;;;;;;;2.60;1.70;;;7.80;99.90;;;;;;5055793;28;20480;-59
2022/02/20 15:27:33;;;;;;;1.30;1.03;;;7.80;99.90;;;;;;5039444;28;20487;-60
2022/02/20 15:30:01;;;;;;;1.47;1.10;;;7.90;99.90;;;;;;5042767;28;20497;-59
2022/02/20 15:32:27;;;;;;;1.83;1.17;;;7.90;99.90;;;;;;5041616;28;20459;-56
2022/02/20 15:34:54;;;;;;;1.93;1.30;;;7.90;99.90;;;;;;5038316;28;20502;-61
2022/02/20 15:37:22;;;;;;;2.50;2.30;;;7.90;99.90;;;;;;5040149;28;20470;-60
2022/02/20 15:39:51;;;;;;;2.37;1.60;;;8.00;99.90;;;;;;5046868;28;20444;-62
2022/02/20 15:42:18;;;;;;;1.80;1.40;;;8.00;99.90;;;;;;5046775;28;20431;-62
2022/02/20 15:44:45;;;;;;;1.87;1.47;;;8.10;99.90;;;;;;5045524;28;20908;-63
2022/02/20 15:47:12;;;;;;;1.50;1.37;;;8.10;99.90;;;;;;5044688;28;20452;-63
2022/02/20 15:49:39;;;;;;;6.03;3.73;;;8.20;99.90;;;;;;5045231;28;20445;-62
2022/02/20 15:52:05;;;;;;;4.03;1.20;;;8.20;99.90;;;;;;5045279;28;20552;-63
2022/02/20 15:54:34;;;;;;;3.83;1.33;;;8.30;99.90;;;;;;5044765;28;20840;-62
2022/02/20 15:57:00;;;;;;;1.20;1.00;;;8.30;99.90;;;;;;5044169;28;20452;-63
2022/02/20 15:59:30;;;;;;;2.40;1.37;;;8.30;99.90;;;;;;5043838;28;20482;-64
2022/02/20 16:01:57;;;;;;;3.00;1.60;;;8.80;99.90;;;;;;5044257;28;20451;-64
2022/02/20 16:04:24;;;;;;;1.13;0.77;;;8.40;99.90;;;;;;5044029;28;20444;-63
2022/02/20 16:06:52;;;;;;;1.30;0.80;;;8.40;99.90;;;;;;5044764;28;20487;-64
2022/02/20 16:09:19;;;;;;;2.50;0.87;;;8.40;99.90;;;;;;5046037;28;20467;-63
2022/02/20 16:11:47;;;;;;;3.67;0.93;;;8.50;99.90;;;;;;5045269;28;20486;-62
2022/02/20 16:14:14;;;;;;;1.20;1.00;;;8.50;99.90;;;;;;5044512;28;20452;-61
2022/02/20 16:16:41;;;;;;;1.00;0.70;;;8.50;99.90;;;;;;5036793;28;20977;-57
2022/02/20 16:19:08;;;;;;;2.23;1.10;;;8.50;99.90;;;;;;5031662;28;20445;-63
2022/02/20 16:21:35;;;;;;;1.87;1.10;;;8.60;99.90;;;;;;5035327;28;20473;-62
2022/02/20 16:24:03;;;;;;;2.30;1.30;;;8.60;99.90;;;;;;5043479;28;20470;-63
2022/02/20 16:26:30;;;;;;;1.33;0.93;;;8.60;99.90;;;;;;5042589;28;20468;-62
2022/02/20 16:28:58;;;;;;;2.60;1.10;;;8.70;99.90;;;;;;5044409;28;20445;-63
2022/02/20 16:31:26;;;;;;;3.80;1.37;;;8.70;99.90;;;;;;5042949;28;20785;-63
2022/02/20 16:33:53;;;;;;;1.67;1.00;;;8.70;99.90;;;;;;5043304;28;20898;-65
2022/02/20 16:36:20;;;;;;;2.80;1.43;;;8.80;99.90;;;;;;5041491;28;20494;-57
2022/02/20 16:38:47;;;;;;;2.40;1.10;;;8.80;99.90;;;;;;5042713;28;20448;-62
2022/02/20 16:41:15;;;;;;;1.73;1.07;;;8.80;99.90;;;;;;5036176;28;20523;-63
2022/02/20 16:43:42;;;;;;;1.67;1.00;;;8.80;99.90;;;;;;5027396;28;20473;-63
2022/02/20 16:46:11;;;;;;;1.23;0.93;;;8.80;99.90;;;;;;5042842;28;20440;-63
2022/02/20 16:48:41;;;;;;;1.17;0.80;;;8.90;99.90;;;;;;5040800;28;20476;-62
2022/02/20 16:51:08;;;;;;;1.37;1.03;;;8.90;99.90;;;;;;5043213;28;20479;-63
2022/02/20 16:53:35;;;;;;;2.23;0.93;;;8.90;99.90;;;;;;5023495;28;20445;-63
2022/02/20 16:56:03;;;;;;;2.33;0.90;;;9.00;99.90;;;;;;5022942;28;20493;-62
2022/02/20 16:58:31;;;;;;;3.70;2.00;;;9.00;99.90;;;;;;5042818;28;20449;-63
2022/02/20 17:01:00;;;;;;;1.63;1.00;;;9.00;99.90;;;;;;5042468;28;20472;-63
2022/02/20 17:03:29;;;;;;;2.50;1.73;;;9.00;99.90;;;;;;5040137;28;20480;-63
2022/02/20 17:05:58;;;;;;;1.57;0.93;;;9.10;99.90;;;;;;5035284;28;20464;-60
2022/02/20 17:08:25;;;;;;;1.67;1.03;;;9.10;99.90;;;;;;5032356;28;20472;-63
2022/02/20 17:10:52;;;;;;;1.73;0.93;;;9.00;99.90;;;;;;5040452;28;20744;-63
2022/02/20 17:13:18;;;;;;;1.37;1.27;;;9.00;99.90;;;;;;5042474;28;20441;-62
2022/02/20 17:15:45;;;;;;;4.30;0.80;;;9.00;99.90;;;;;;5042753;28;21029;-62
2022/02/20 17:18:12;;;;;;;1.10;0.80;;;9.00;99.90;;;;;;5036120;28;20509;-59
2022/02/20 17:20:40;;;;;;;3.10;0.90;;;9.00;99.90;;;;;;5036752;28;20759;-57
2022/02/20 17:23:08;;;;;;;3.13;1.37;;;9.00;99.90;;;;;;5037825;28;20468;-61
2022/02/20 17:25:36;;;;;;;1.00;0.90;;;8.90;99.90;;;;;;5033013;28;20839;-61
2022/02/20 17:28:03;;;;;;;5.40;2.83;;;9.00;99.90;;;;;;5043913;28;20443;-63
2022/02/20 17:30:30;;;;;;;2.73;2.53;;;9.00;99.90;;;;;;5043070;28;20531;-64
2022/02/20 17:32:57;;;;;;;1.90;1.00;;;9.00;99.90;;;;;;5039963;28;20452;-62
2022/02/20 17:35:24;;;;;;;1.23;0.90;;;9.00;99.90;;;;;;5043872;28;20506;-62
2022/02/20 17:37:52;;;;;;;3.70;0.90;;;9.00;99.90;;;;;;5043072;28;20513;-64
2022/02/20 17:40:26;;;;;;;3.73;1.63;;;9.00;99.90;;;;;;5045153;28;20447;-63
2022/02/20 17:42:53;;;;;;;1.87;1.03;;;9.00;99.90;;;;;;5048221;28;20496;-58
2022/02/20 17:45:22;;;;;;;2.77;1.57;;;9.00;99.90;;;;;;5032643;28;20448;-62
2022/02/20 17:47:49;;;;;;;6.43;2.00;;;9.00;99.90;;;;;;5044044;28;20445;-62
2022/02/20 17:50:18;;;;;;;1.20;1.00;;;9.00;99.90;;;;;;5030270;28;20985;-63
2022/02/20 17:52:45;;;;;;;1.87;1.10;;;9.10;99.90;;;;;;5034187;28;20502;-58
2022/02/20 17:55:13;;;;;;;1.50;1.00;;;9.10;99.90;;;;;;5039619;28;20476;-52
2022/02/20 17:57:45;;;;;;;3.83;1.40;;;9.10;99.90;;;;;;5054685;28;20464;-55
2022/02/20 18:00:14;;;;;;;1.33;0.77;;;9.10;99.90;;;;;;5076305;28;20475;-60
2022/02/20 18:02:42;;;;;;;1.23;0.90;;;9.10;99.90;;;;;;5057061;28;20476;-56
2022/02/20 18:05:17;;;;;;;2.77;1.70;;;9.10;99.90;;;;;;5054154;28;20463;-54
2022/02/20 18:07:44;;;;;;;1.10;0.90;;;9.00;99.90;;;;;;5036977;28;20480;-61
2022/02/20 18:10:12;;;;;;;2.20;1.40;;;9.10;99.90;;;;;;5036031;28;20513;-60
2022/02/20 18:12:41;;;;;;;0.90;0.80;;;9.10;99.90;;;;;;5035147;28;20477;-57
2022/02/20 18:15:14;;;;;;;2.50;1.57;;;9.10;99.90;;;;;;5043268;28;20474;-59
2022/02/20 18:17:45;;;;;;;0.97;0.80;;;9.10;99.90;;;;;;5046552;28;20480;-58
2022/02/20 18:20:15;;;;;;;1.63;0.97;;;9.10;99.90;;;;;;5072503;28;20461;-58
2022/02/20 18:22:43;;;;;;;1.30;1.13;;;9.10;99.90;;;;;;5036933;28;20539;-54
2022/02/20 18:25:19;;;;;;;1.40;0.83;;;9.10;99.90;;;;;;5042466;28;20520;-58
2022/02/20 18:27:47;;;;;;;2.30;1.17;;;9.10;99.90;;;;;;5055582;28;20428;-61
2022/02/20 18:30:16;;;;;;;1.00;0.73;;;9.10;99.90;;;;;;5047481;28;20975;-58
2022/02/20 18:32:44;;;;;;;0.90;0.60;;;9.10;99.90;;;;;;5038751;28;20452;-63
2022/02/20 18:35:14;;;;;;;2.57;0.90;;;9.10;99.90;;;;;;5055036;28;20479;-60
2022/02/20 18:37:41;;;;;;;1.47;1.07;;;9.00;99.90;;;;;;5052036;28;20512;-58
2022/02/20 18:40:09;;;;;;;1.10;0.80;;;9.10;99.90;;;;;;5035183;28;20442;-58
2022/02/20 18:42:40;;;;;;;0.90;0.70;;;9.10;99.90;;;;;;5036640;28;20460;-57
2022/02/20 18:45:12;;;;;;;2.17;1.20;;;9.10;99.90;;;;;;5054619;28;20433;-57
2022/02/20 18:47:41;;;;;;;2.10;1.20;;;9.10;99.90;;;;;;5048057;28;20448;-62
2022/02/20 18:50:09;;;;;;;1.70;1.00;;;9.10;99.90;;;;;;5034755;28;20445;-59
2022/02/20 18:52:38;;;;;;;1.43;0.93;;;9.10;99.90;;;;;;5036348;28;20776;-61
2022/02/20 18:55:06;;;;;;;1.53;1.23;;;9.20;99.90;;;;;;5018567;28;20472;-62
2022/02/20 18:57:33;;;;;;;3.73;1.40;;;9.10;99.90;;;;;;5018260;28;20798;-62
2022/02/20 19:00:02;;;;;;;2.80;1.40;;;9.10;99.90;;;;;;5018122;28;20445;-62
2022/02/20 19:02:29;;;;;;;2.07;1.60;;;9.10;99.90;;;;;;5018198;28;20457;-62
2022/02/20 19:04:56;;;;;;;1.60;1.00;;;9.10;99.90;;;;;;5018356;28;20457;-62
2022/02/20 19:07:23;;;;;;;2.07;0.90;;;9.20;99.90;;;;;;5019072;28;20458;-61
2022/02/20 19:09:51;;;;;;;2.07;0.90;;;9.20;99.90;;;;;;5018088;28;20469;-62
2022/02/20 19:12:18;;;;;;;2.00;1.10;;;9.20;99.90;;;;;;5029219;28;20468;-61
2022/02/20 19:14:45;;;;;;;2.13;0.80;;;9.20;99.90;;;;;;5037871;28;20476;-63
2022/02/20 19:17:15;;;;;;;1.90;0.80;;;9.20;99.90;;;;;;5027834;28;20473;-60
2022/02/20 19:19:45;;;;;;;1.53;0.90;;;9.20;99.90;;;;;;5018642;28;20424;-62
2022/02/20 19:22:15;;;;;;;2.73;0.80;;;9.20;99.90;;;;;;5028998;28;20939;-63
2022/02/20 19:24:42;;;;;;;1.27;0.87;;;9.20;99.90;;;;;;5039225;28;20448;-66
2022/02/20 19:27:09;;;;;;;1.20;0.90;;;9.20;99.90;;;;;;5037507;28;20515;-58
2022/02/20 19:29:37;;;;;;;1.73;1.17;;;9.20;99.90;;;;;;5038427;28;20448;-62
2022/02/20 19:32:04;;;;;;;1.20;1.00;;;9.20;99.90;;;;;;5029039;28;20934;-63
2022/02/20 19:34:32;;;;;;;1.60;0.97;;;9.20;99.90;;;;;;5019660;28;20456;-62
2022/02/20 19:37:01;;;;;;;5.53;1.10;;;9.20;99.90;;;;;;5020403;28;20485;-62
2022/02/20 19:39:28;;;;;;;1.10;1.00;;;9.20;99.90;;;;;;5036557;28;20474;-62
2022/02/20 19:41:55;;;;;;;2.40;1.10;;;9.20;99.90;;;;;;5037574;28;20467;-61
2022/02/20 19:44:22;;;;;;;1.03;0.80;;;9.20;99.90;;;;;;5037235;28;20932;-62
2022/02/20 19:46:54;;;;;;;1.17;0.80;;;9.20;99.90;;;;;;5037854;28;20506;-63
2022/02/20 19:49:25;;;;;;;1.13;0.97;;;9.20;99.90;;;;;;5037438;28;20531;-62
2022/02/20 19:52:05;;;;;;;1.50;1.20;;;9.10;99.90;;;;;;5035882;28;20929;-62
2022/02/20 19:54:34;;;;;;;1.47;0.93;;;9.20;99.90;;;;;;5037768;28;20812;-62
2022/02/20 19:57:02;;;;;;;1.67;1.03;;;9.20;99.90;;;;;;5030114;28;20484;-62
2022/02/20 19:59:29;;;;;;;3.20;1.20;;;9.20;99.90;;;;;;5017594;28;20957;-62
2022/02/20 20:01:58;;;;;;;2.23;0.80;;;9.20;99.90;;;;;;5021610;28;20826;-63
2022/02/20 20:04:25;;;;;;;1.13;0.80;;;9.20;99.90;;;;;;5037732;28;20472;-60
2022/02/20 20:07:01;;;;;;;2.40;0.80;;;9.20;99.90;;;;;;5036935;28;20449;-59
2022/02/20 20:09:28;;;;;;;1.10;0.87;;;9.30;99.90;;;;;;5018785;28;20588;-61
2022/02/20 20:11:55;;;;;;;1.40;1.30;;;9.30;99.90;;;;;;5031114;28;20468;-59
2022/02/20 20:14:22;;;;;;;4.23;2.33;;;9.30;99.90;;;;;;5032265;28;20451;-60
2022/02/20 20:16:49;;;;;;;2.87;1.50;;;9.30;99.90;;;;;;5029237;28;20488;-60
2022/02/20 20:19:16;;;;;;;0.97;0.80;;;9.30;99.90;;;;;;5037757;28;20476;-59
2022/02/20 20:21:43;;;;;;;1.60;1.00;;;9.30;99.90;;;;;;5040844;28;20479;-61
2022/02/20 20:24:12;;;;;;;1.60;1.00;;;9.30;99.90;;;;;;5032977;28;20453;-58
2022/02/20 20:26:40;;;;;;;1.10;0.87;;;9.30;99.90;;;;;;5020930;28;20852;-59
2022/02/20 20:29:07;;;;;;;2.80;1.60;;;9.40;99.90;;;;;;5025701;28;20460;-62
2022/02/20 20:31:34;;;;;;;2.60;1.00;;;9.40;99.90;;;;;;5044817;28;20463;-58
2022/02/20 20:34:02;;;;;;;3.23;1.13;;;9.40;99.90;;;;;;5051829;28;20448;-63
2022/02/20 20:36:29;;;;;;;0.80;0.50;;;9.40;99.90;;;;;;5051472;28;20520;-66
2022/02/20 20:38:56;;;;;;;2.30;0.80;;;9.40;99.90;;;;;;5036833;28;20476;-50
2022/02/20 20:41:24;;;;;;;2.37;1.20;;;9.40;99.90;;;;;;5026752;28;20507;-48
2022/02/20 20:43:51;;;;;;;5.33;0.93;;;9.50;99.90;;;;;;5017222;28;20446;-54
2022/02/20 20:46:18;;;;;;;1.30;1.13;;;9.50;99.90;;;;;;5017454;28;20476;-52